UAL358 KEWR-KSDF
Flight info
| Callsign | UAL358 |
|---|---|
| Flight time | 1h 32m |
| Altitude | 36000 |
| Route | ZIMMZ Q42 MIKYG Q480 AIR UKATS DLAMP8 |
| Aircraft | B737/M-SDE2E3FGHIRWXY/LB1 |
Departure
| Time | 2026-04-24 01:28 |
|---|---|
| Airport | Newark Liberty International Airport (KEWR) |
Arrival
| Time | 2026-04-24 03:00 |
|---|---|
| Airport | Louisville Muhammad Ali International Airport (KSDF) |
| Time | Latitude | Longitude | Altitude | Speed | Heading |
|---|---|---|---|---|---|
| 2026-04-24 01:14 | 40.69683 | -74.17506 | 21 ft | 0 kts | 309° |
| 2026-04-24 01:19 | 40.69686 | -74.17511 | 22 ft | 2 kts | 309° |
| 2026-04-24 01:19 | 40.69679 | -74.17500 | 21 ft | 3 kts | 309° |
| 2026-04-24 01:19 | 40.69667 | -74.17481 | 23 ft | 3 kts | 309° |
| 2026-04-24 01:20 | 40.69654 | -74.17469 | 22 ft | 2 kts | 13° |
| 2026-04-24 01:20 | 40.69647 | -74.17471 | 25 ft | 0 kts | 37° |
| 2026-04-24 01:21 | 40.69649 | -74.17469 | 22 ft | 1 kts | 37° |
| 2026-04-24 01:21 | 40.69675 | -74.17443 | 23 ft | 9 kts | 37° |
| 2026-04-24 01:21 | 40.69730 | -74.17360 | 23 ft | 16 kts | 75° |
| 2026-04-24 01:22 | 40.69714 | -74.17193 | 23 ft | 20 kts | 123° |
| 2026-04-24 01:22 | 40.69576 | -74.17094 | 21 ft | 25 kts | 161° |
| 2026-04-24 01:22 | 40.69409 | -74.17059 | 21 ft | 24 kts | 177° |
| 2026-04-24 01:22 | 40.69261 | -74.17131 | 21 ft | 20 kts | 206° |
| 2026-04-24 01:23 | 40.69178 | -74.17184 | 21 ft | 13 kts | 206° |
| 2026-04-24 01:23 | 40.69097 | -74.17236 | 21 ft | 13 kts | 206° |
| 2026-04-24 01:23 | 40.69021 | -74.17285 | 21 ft | 12 kts | 206° |
| 2026-04-24 01:23 | 40.68944 | -74.17333 | 21 ft | 12 kts | 206° |
| 2026-04-24 01:24 | 40.68865 | -74.17384 | 22 ft | 15 kts | 206° |
| 2026-04-24 01:24 | 40.68772 | -74.17441 | 21 ft | 14 kts | 204° |
| 2026-04-24 01:24 | 40.68683 | -74.17495 | 21 ft | 14 kts | 205° |
| 2026-04-24 01:24 | 40.68598 | -74.17547 | 21 ft | 13 kts | 205° |
| 2026-04-24 01:25 | 40.68517 | -74.17600 | 21 ft | 13 kts | 207° |
| 2026-04-24 01:25 | 40.68439 | -74.17652 | 21 ft | 12 kts | 207° |
| 2026-04-24 01:25 | 40.68361 | -74.17700 | 21 ft | 13 kts | 204° |
| 2026-04-24 01:25 | 40.68258 | -74.17762 | 21 ft | 17 kts | 205° |
| 2026-04-24 01:26 | 40.68154 | -74.17825 | 21 ft | 16 kts | 205° |
| 2026-04-24 01:26 | 40.68069 | -74.17851 | 21 ft | 10 kts | 139° |
| 2026-04-24 01:26 | 40.68011 | -74.17826 | 21 ft | 10 kts | 190° |
| 2026-04-24 01:26 | 40.67942 | -74.17851 | 21 ft | 11 kts | 205° |
| 2026-04-24 01:27 | 40.67863 | -74.17900 | 21 ft | 14 kts | 204° |
| 2026-04-24 01:27 | 40.67781 | -74.17857 | 21 ft | 13 kts | 128° |
| 2026-04-24 01:27 | 40.67798 | -74.17780 | 20 ft | 8 kts | 25° |
| 2026-04-24 01:27 | 40.67850 | -74.17749 | 20 ft | 8 kts | 25° |
| 2026-04-24 01:28 | 40.68143 | -74.17564 | 20 ft | 91 kts | 26° |
| 2026-04-24 01:28 | 40.68954 | -74.17093 | 73 ft | 161 kts | 19° |
| 2026-04-24 01:28 | 40.70101 | -74.16402 | 488 ft | 202 kts | 18° |
| 2026-04-24 01:28 | 40.71546 | -74.16102 | 1157 ft | 218 kts | 356° |
| 2026-04-24 01:29 | 40.73040 | -74.16456 | 2094 ft | 221 kts | 338° |
| 2026-04-24 01:29 | 40.74199 | -74.17750 | 2893 ft | 224 kts | 300° |
| 2026-04-24 01:29 | 40.74689 | -74.19698 | 3876 ft | 224 kts | 281° |
| 2026-04-24 01:29 | 40.74873 | -74.21766 | 4726 ft | 236 kts | 277° |
| 2026-04-24 01:30 | 40.75010 | -74.23997 | 5532 ft | 248 kts | 277° |
| 2026-04-24 01:30 | 40.75137 | -74.26287 | 6588 ft | 252 kts | 278° |
| 2026-04-24 01:30 | 40.75265 | -74.28591 | 7730 ft | 249 kts | 278° |
| 2026-04-24 01:30 | 40.75077 | -74.30882 | 8918 ft | 255 kts | 265° |
| 2026-04-24 01:31 | 40.74676 | -74.33147 | 9957 ft | 259 kts | 264° |
| 2026-04-24 01:31 | 40.74240 | -74.35494 | 10688 ft | 273 kts | 264° |
| 2026-04-24 01:31 | 40.73771 | -74.38073 | 10893 ft | 304 kts | 264° |
| 2026-04-24 01:31 | 40.73259 | -74.40901 | 11255 ft | 327 kts | 263° |
| 2026-04-24 01:32 | 40.72720 | -74.43854 | 11999 ft | 335 kts | 264° |
| 2026-04-24 01:32 | 40.72169 | -74.46868 | 12871 ft | 340 kts | 264° |
| 2026-04-24 01:32 | 40.71612 | -74.49932 | 13689 ft | 346 kts | 264° |
| 2026-04-24 01:32 | 40.71050 | -74.53040 | 14515 ft | 350 kts | 264° |
| 2026-04-24 01:33 | 40.70486 | -74.56168 | 15419 ft | 351 kts | 263° |
| 2026-04-24 01:33 | 40.69921 | -74.59308 | 16281 ft | 352 kts | 263° |
| 2026-04-24 01:33 | 40.69360 | -74.62429 | 17114 ft | 355 kts | 263° |
| 2026-04-24 01:33 | 40.68791 | -74.65607 | 17932 ft | 358 kts | 263° |
| 2026-04-24 01:34 | 40.68215 | -74.68822 | 18638 ft | 362 kts | 263° |
| 2026-04-24 01:34 | 40.67634 | -74.72061 | 19279 ft | 366 kts | 263° |
| 2026-04-24 01:34 | 40.67043 | -74.75359 | 19897 ft | 371 kts | 263° |
| 2026-04-24 01:34 | 40.66446 | -74.78681 | 20530 ft | 375 kts | 263° |
| 2026-04-24 01:35 | 40.65841 | -74.82043 | 21152 ft | 379 kts | 263° |
| 2026-04-24 01:35 | 40.65228 | -74.85436 | 21773 ft | 382 kts | 263° |
| 2026-04-24 01:35 | 40.64609 | -74.88856 | 22370 ft | 387 kts | 263° |
| 2026-04-24 01:35 | 40.63982 | -74.92321 | 22951 ft | 391 kts | 264° |
| 2026-04-24 01:36 | 40.63347 | -74.95821 | 23512 ft | 395 kts | 264° |
| 2026-04-24 01:36 | 40.62713 | -74.99310 | 23979 ft | 399 kts | 264° |
| 2026-04-24 01:36 | 40.62063 | -75.02875 | 24489 ft | 402 kts | 264° |
| 2026-04-24 01:36 | 40.61398 | -75.06512 | 24985 ft | 404 kts | 263° |
| 2026-04-24 01:37 | 40.60744 | -75.10085 | 25431 ft | 408 kts | 263° |
| 2026-04-24 01:37 | 40.60077 | -75.13726 | 25896 ft | 410 kts | 263° |
| 2026-04-24 01:37 | 40.59405 | -75.17383 | 26329 ft | 413 kts | 263° |
| 2026-04-24 01:37 | 40.58725 | -75.21081 | 26740 ft | 417 kts | 263° |
| 2026-04-24 01:38 | 40.58039 | -75.24799 | 27178 ft | 420 kts | 263° |
| 2026-04-24 01:38 | 40.57348 | -75.28544 | 27607 ft | 423 kts | 263° |
| 2026-04-24 01:38 | 40.56650 | -75.32315 | 28035 ft | 425 kts | 263° |
| 2026-04-24 01:38 | 40.55947 | -75.36108 | 28438 ft | 428 kts | 263° |
| 2026-04-24 01:39 | 40.55237 | -75.39926 | 28828 ft | 431 kts | 263° |
| 2026-04-24 01:39 | 40.54522 | -75.43773 | 29166 ft | 434 kts | 263° |
| 2026-04-24 01:39 | 40.53808 | -75.47598 | 29526 ft | 437 kts | 263° |
| 2026-04-24 01:39 | 40.53082 | -75.51473 | 30047 ft | 436 kts | 263° |
| 2026-04-24 01:40 | 40.52358 | -75.55328 | 30574 ft | 432 kts | 263° |
| 2026-04-24 01:40 | 40.51639 | -75.59143 | 31144 ft | 428 kts | 263° |
| 2026-04-24 01:40 | 40.50924 | -75.62935 | 31665 ft | 425 kts | 263° |
| 2026-04-24 01:40 | 40.50213 | -75.66705 | 32134 ft | 423 kts | 263° |
| 2026-04-24 01:41 | 40.49505 | -75.70459 | 32586 ft | 422 kts | 263° |
| 2026-04-24 01:41 | 40.48800 | -75.74190 | 33059 ft | 420 kts | 263° |
| 2026-04-24 01:41 | 40.48097 | -75.77903 | 33531 ft | 417 kts | 263° |
| 2026-04-24 01:41 | 40.47396 | -75.81597 | 33857 ft | 417 kts | 263° |
| 2026-04-24 01:42 | 40.46702 | -75.85261 | 34077 ft | 419 kts | 263° |
| 2026-04-24 01:42 | 40.45995 | -75.88982 | 34356 ft | 420 kts | 263° |
| 2026-04-24 01:42 | 40.45286 | -75.92693 | 34698 ft | 418 kts | 263° |
| 2026-04-24 01:42 | 40.44578 | -75.96392 | 35010 ft | 417 kts | 263° |
| 2026-04-24 01:43 | 40.43868 | -76.00102 | 35264 ft | 418 kts | 263° |
| 2026-04-24 01:43 | 40.43156 | -76.03815 | 35494 ft | 419 kts | 263° |
| 2026-04-24 01:43 | 40.42406 | -76.07529 | 35758 ft | 420 kts | 263° |
| 2026-04-24 01:43 | 40.41846 | -76.11213 | 35921 ft | 416 kts | 268° |
| 2026-04-24 01:44 | 40.41423 | -76.14974 | 35885 ft | 416 kts | 268° |
| 2026-04-24 01:44 | 40.40665 | -76.22510 | 35917 ft | 416 kts | 269° |
| 2026-04-24 01:45 | 40.39878 | -76.30044 | 35913 ft | 417 kts | 268° |
| 2026-04-24 01:45 | 40.39044 | -76.37586 | 35905 ft | 418 kts | 268° |
| 2026-04-24 01:46 | 40.38185 | -76.45147 | 35899 ft | 419 kts | 268° |
| 2026-04-24 01:46 | 40.37322 | -76.52657 | 35880 ft | 419 kts | 267° |
| 2026-04-24 01:47 | 40.36448 | -76.60212 | 35895 ft | 418 kts | 267° |
| 2026-04-24 01:47 | 40.35572 | -76.67760 | 35880 ft | 418 kts | 267° |
| 2026-04-24 01:48 | 40.34695 | -76.75261 | 35903 ft | 418 kts | 267° |
| 2026-04-24 01:48 | 40.33810 | -76.82797 | 35919 ft | 418 kts | 267° |
| 2026-04-24 01:49 | 40.33065 | -76.89112 | 35896 ft | 418 kts | 266° |
| 2026-04-24 01:49 | 40.32170 | -76.96652 | 35919 ft | 419 kts | 266° |
| 2026-04-24 01:50 | 40.31273 | -77.04162 | 35911 ft | 420 kts | 266° |
| 2026-04-24 01:50 | 40.30365 | -77.11730 | 35923 ft | 421 kts | 266° |
| 2026-04-24 01:51 | 40.29449 | -77.19315 | 35922 ft | 421 kts | 266° |
| 2026-04-24 01:51 | 40.28527 | -77.26905 | 35918 ft | 422 kts | 266° |
| 2026-04-24 01:52 | 40.27604 | -77.34456 | 35920 ft | 422 kts | 265° |
| 2026-04-24 01:52 | 40.26669 | -77.42058 | 35923 ft | 422 kts | 266° |
| 2026-04-24 01:53 | 40.25732 | -77.49638 | 35936 ft | 421 kts | 266° |
| 2026-04-24 01:53 | 40.24792 | -77.57212 | 35959 ft | 420 kts | 266° |
| 2026-04-24 01:54 | 40.23854 | -77.64730 | 35932 ft | 421 kts | 265° |
| 2026-04-24 01:54 | 40.22903 | -77.72311 | 35941 ft | 421 kts | 265° |
| 2026-04-24 01:55 | 40.21946 | -77.79893 | 35936 ft | 422 kts | 265° |
| 2026-04-24 01:55 | 40.20983 | -77.87473 | 35954 ft | 423 kts | 265° |
| 2026-04-24 01:56 | 40.20018 | -77.95039 | 35955 ft | 424 kts | 265° |
| 2026-04-24 01:56 | 40.19041 | -78.02652 | 35950 ft | 424 kts | 265° |
| 2026-04-24 01:57 | 40.18060 | -78.10256 | 35951 ft | 424 kts | 265° |
| 2026-04-24 01:57 | 40.17073 | -78.17864 | 35964 ft | 424 kts | 265° |
| 2026-04-24 01:58 | 40.16081 | -78.25474 | 35955 ft | 424 kts | 265° |
| 2026-04-24 01:58 | 40.15094 | -78.33030 | 35959 ft | 425 kts | 265° |
| 2026-04-24 01:59 | 40.14089 | -78.40637 | 35958 ft | 425 kts | 265° |
| 2026-04-24 01:59 | 40.13075 | -78.48285 | 35952 ft | 426 kts | 265° |
| 2026-04-24 02:00 | 40.12062 | -78.55890 | 35955 ft | 425 kts | 265° |
| 2026-04-24 02:00 | 40.11044 | -78.63491 | 35961 ft | 425 kts | 265° |
| 2026-04-24 02:01 | 40.10023 | -78.71082 | 35940 ft | 425 kts | 265° |
| 2026-04-24 02:01 | 40.08997 | -78.78667 | 35991 ft | 424 kts | 265° |
| 2026-04-24 02:02 | 40.07965 | -78.86263 | 35983 ft | 424 kts | 265° |
| 2026-04-24 02:02 | 40.06929 | -78.93840 | 35990 ft | 424 kts | 265° |
| 2026-04-24 02:03 | 40.05367 | -79.05204 | 35993 ft | 424 kts | 264° |
| 2026-04-24 02:03 | 40.04319 | -79.12784 | 35990 ft | 424 kts | 264° |
| 2026-04-24 02:04 | 40.03274 | -79.20300 | 35990 ft | 424 kts | 264° |
| 2026-04-24 02:04 | 40.02215 | -79.27880 | 35990 ft | 424 kts | 264° |
| 2026-04-24 02:05 | 40.01153 | -79.35451 | 35984 ft | 424 kts | 264° |
| 2026-04-24 02:05 | 40.00271 | -79.43029 | 35958 ft | 419 kts | 272° |
| 2026-04-24 02:06 | 40.00374 | -79.50549 | 35981 ft | 417 kts | 275° |
| 2026-04-24 02:06 | 40.00529 | -79.58113 | 35971 ft | 417 kts | 275° |
| 2026-04-24 02:07 | 40.00657 | -79.65707 | 35981 ft | 418 kts | 275° |
| 2026-04-24 02:07 | 40.00764 | -79.73257 | 35972 ft | 419 kts | 275° |
| 2026-04-24 02:08 | 40.00863 | -79.80862 | 35962 ft | 420 kts | 274° |
| 2026-04-24 02:08 | 40.00956 | -79.88490 | 35976 ft | 420 kts | 274° |
| 2026-04-24 02:09 | 40.01045 | -79.96128 | 35974 ft | 421 kts | 274° |
| 2026-04-24 02:09 | 40.01129 | -80.03773 | 35984 ft | 421 kts | 274° |
| 2026-04-24 02:10 | 40.01208 | -80.11423 | 35981 ft | 422 kts | 274° |
| 2026-04-24 02:10 | 40.01281 | -80.19024 | 35980 ft | 422 kts | 274° |
| 2026-04-24 02:11 | 40.01350 | -80.26688 | 35991 ft | 422 kts | 274° |
| 2026-04-24 02:11 | 40.01414 | -80.34339 | 35989 ft | 421 kts | 274° |
| 2026-04-24 02:12 | 40.01473 | -80.41997 | 35993 ft | 421 kts | 274° |
| 2026-04-24 02:12 | 40.01527 | -80.49642 | 35975 ft | 421 kts | 274° |
| 2026-04-24 02:13 | 40.01576 | -80.57243 | 35968 ft | 421 kts | 274° |
| 2026-04-24 02:13 | 40.01620 | -80.64897 | 35984 ft | 421 kts | 273° |
| 2026-04-24 02:14 | 40.01660 | -80.72544 | 35980 ft | 421 kts | 273° |
| 2026-04-24 02:14 | 40.01694 | -80.80184 | 35985 ft | 421 kts | 273° |
| 2026-04-24 02:15 | 40.02068 | -80.87748 | 35989 ft | 419 kts | 278° |
| 2026-04-24 02:15 | 40.02492 | -80.95337 | 35976 ft | 421 kts | 270° |
| 2026-04-24 02:16 | 40.01610 | -81.02937 | 35984 ft | 425 kts | 263° |
| 2026-04-24 02:16 | 40.00504 | -81.10506 | 35976 ft | 425 kts | 263° |
| 2026-04-24 02:17 | 39.99421 | -81.18036 | 35976 ft | 425 kts | 263° |
| 2026-04-24 02:17 | 39.98349 | -81.25611 | 35978 ft | 425 kts | 263° |
| 2026-04-24 02:18 | 39.97278 | -81.33197 | 35972 ft | 425 kts | 263° |
| 2026-04-24 02:18 | 39.96205 | -81.40768 | 35973 ft | 424 kts | 263° |
| 2026-04-24 02:19 | 39.95127 | -81.48336 | 35973 ft | 424 kts | 263° |
| 2026-04-24 02:19 | 39.94045 | -81.55896 | 35959 ft | 424 kts | 263° |
| 2026-04-24 02:20 | 39.92964 | -81.63408 | 35972 ft | 424 kts | 263° |
| 2026-04-24 02:20 | 39.91873 | -81.70955 | 35973 ft | 424 kts | 262° |
| 2026-04-24 02:21 | 39.90776 | -81.78507 | 35966 ft | 424 kts | 262° |
| 2026-04-24 02:21 | 39.89675 | -81.86051 | 35964 ft | 424 kts | 262° |
| 2026-04-24 02:22 | 39.88568 | -81.93599 | 35960 ft | 424 kts | 262° |
| 2026-04-24 02:22 | 39.87464 | -82.01094 | 35965 ft | 424 kts | 262° |
| 2026-04-24 02:23 | 39.86348 | -82.08632 | 35959 ft | 424 kts | 262° |
| 2026-04-24 02:23 | 39.85226 | -82.16175 | 35966 ft | 424 kts | 262° |
| 2026-04-24 02:24 | 39.84106 | -82.23672 | 35966 ft | 424 kts | 262° |
| 2026-04-24 02:24 | 39.82976 | -82.31196 | 35967 ft | 424 kts | 262° |
| 2026-04-24 02:25 | 39.81840 | -82.38728 | 35964 ft | 424 kts | 262° |
| 2026-04-24 02:25 | 39.80701 | -82.46248 | 35964 ft | 423 kts | 262° |
| 2026-04-24 02:26 | 39.79558 | -82.53755 | 35983 ft | 423 kts | 262° |
| 2026-04-24 02:26 | 39.78419 | -82.61207 | 35981 ft | 423 kts | 262° |
| 2026-04-24 02:27 | 39.77266 | -82.68710 | 35980 ft | 423 kts | 262° |
| 2026-04-24 02:27 | 39.76108 | -82.76216 | 35985 ft | 423 kts | 262° |
| 2026-04-24 02:28 | 39.74946 | -82.83718 | 35972 ft | 423 kts | 261° |
| 2026-04-24 02:28 | 39.73784 | -82.91181 | 35971 ft | 424 kts | 261° |
| 2026-04-24 02:29 | 39.72610 | -82.98688 | 35973 ft | 423 kts | 261° |
| 2026-04-24 02:29 | 39.71432 | -83.06190 | 35969 ft | 423 kts | 261° |
| 2026-04-24 02:30 | 39.70257 | -83.13638 | 35971 ft | 423 kts | 261° |
| 2026-04-24 02:30 | 39.69069 | -83.21137 | 35966 ft | 423 kts | 261° |
| 2026-04-24 02:31 | 39.67880 | -83.28609 | 35966 ft | 423 kts | 261° |
| 2026-04-24 02:31 | 39.66692 | -83.36039 | 35964 ft | 423 kts | 260° |
| 2026-04-24 02:32 | 39.65493 | -83.43514 | 35970 ft | 422 kts | 260° |
| 2026-04-24 02:32 | 39.64290 | -83.50981 | 35972 ft | 422 kts | 260° |
| 2026-04-24 02:33 | 39.62845 | -83.58371 | 35955 ft | 426 kts | 247° |
| 2026-04-24 02:33 | 39.59930 | -83.65089 | 35985 ft | 427 kts | 243° |
| 2026-04-24 02:34 | 39.56950 | -83.71710 | 35985 ft | 428 kts | 243° |
| 2026-04-24 02:34 | 39.53969 | -83.78415 | 35990 ft | 429 kts | 243° |
| 2026-04-24 02:35 | 39.51010 | -83.85125 | 35991 ft | 429 kts | 243° |
| 2026-04-24 02:35 | 39.48049 | -83.91844 | 35984 ft | 429 kts | 243° |
| 2026-04-24 02:36 | 39.45096 | -83.98532 | 35985 ft | 429 kts | 243° |
| 2026-04-24 02:36 | 39.42126 | -84.05242 | 35969 ft | 429 kts | 243° |
| 2026-04-24 02:37 | 39.39659 | -84.10805 | 35971 ft | 428 kts | 243° |
| 2026-04-24 02:37 | 39.36690 | -84.17486 | 35967 ft | 428 kts | 243° |
| 2026-04-24 02:38 | 39.33717 | -84.24160 | 35952 ft | 429 kts | 243° |
| 2026-04-24 02:38 | 39.32208 | -84.27546 | 35298 ft | 437 kts | 243° |
| 2026-04-24 02:38 | 39.30709 | -84.30905 | 34622 ft | 436 kts | 242° |
| 2026-04-24 02:39 | 39.29190 | -84.34302 | 33835 ft | 437 kts | 242° |
| 2026-04-24 02:39 | 39.27671 | -84.37696 | 32956 ft | 438 kts | 242° |
| 2026-04-24 02:39 | 39.26144 | -84.41104 | 32070 ft | 439 kts | 242° |
| 2026-04-24 02:39 | 39.24612 | -84.44518 | 31182 ft | 440 kts | 242° |
| 2026-04-24 02:40 | 39.23075 | -84.47942 | 30254 ft | 441 kts | 242° |
| 2026-04-24 02:40 | 39.21538 | -84.51363 | 29417 ft | 439 kts | 242° |
| 2026-04-24 02:40 | 39.20012 | -84.54752 | 28664 ft | 434 kts | 242° |
| 2026-04-24 02:40 | 39.18510 | -84.58085 | 27988 ft | 428 kts | 242° |
| 2026-04-24 02:41 | 39.17021 | -84.61386 | 27294 ft | 423 kts | 242° |
| 2026-04-24 02:41 | 39.15569 | -84.64604 | 26629 ft | 418 kts | 242° |
| 2026-04-24 02:41 | 39.14114 | -84.67827 | 25965 ft | 414 kts | 241° |
| 2026-04-24 02:41 | 39.12652 | -84.71061 | 25302 ft | 410 kts | 241° |
| 2026-04-24 02:42 | 39.11241 | -84.74182 | 24655 ft | 407 kts | 241° |
| 2026-04-24 02:42 | 39.09813 | -84.77332 | 23978 ft | 405 kts | 240° |
| 2026-04-24 02:42 | 39.08308 | -84.80389 | 23234 ft | 404 kts | 231° |
| 2026-04-24 02:42 | 39.06248 | -84.82830 | 22689 ft | 401 kts | 216° |
| 2026-04-24 02:43 | 39.03857 | -84.84560 | 22260 ft | 398 kts | 208° |
| 2026-04-24 02:43 | 39.00703 | -84.86535 | 21714 ft | 403 kts | 207° |
| 2026-04-24 02:43 | 38.98135 | -84.88107 | 21277 ft | 405 kts | 207° |
| 2026-04-24 02:43 | 38.95631 | -84.89651 | 20846 ft | 403 kts | 207° |
| 2026-04-24 02:44 | 38.93121 | -84.91216 | 20414 ft | 399 kts | 207° |
| 2026-04-24 02:44 | 38.90639 | -84.92780 | 19995 ft | 396 kts | 208° |
| 2026-04-24 02:44 | 38.88176 | -84.94341 | 19578 ft | 393 kts | 208° |
| 2026-04-24 02:44 | 38.85732 | -84.95893 | 19165 ft | 391 kts | 208° |
| 2026-04-24 02:45 | 38.83305 | -84.97435 | 18763 ft | 387 kts | 207° |
| 2026-04-24 02:45 | 38.80910 | -84.98956 | 18404 ft | 381 kts | 207° |
| 2026-04-24 02:45 | 38.78562 | -85.00445 | 18000 ft | 373 kts | 207° |
| 2026-04-24 02:45 | 38.76244 | -85.01913 | 17566 ft | 370 kts | 207° |
| 2026-04-24 02:46 | 38.73946 | -85.03367 | 17157 ft | 367 kts | 207° |
| 2026-04-24 02:46 | 38.71665 | -85.04808 | 16745 ft | 364 kts | 207° |
| 2026-04-24 02:46 | 38.69401 | -85.06235 | 16352 ft | 361 kts | 207° |
| 2026-04-24 02:46 | 38.67912 | -85.07174 | 16085 ft | 360 kts | 207° |
| 2026-04-24 02:47 | 38.65671 | -85.08587 | 15684 ft | 357 kts | 207° |
| 2026-04-24 02:47 | 38.63450 | -85.09987 | 15302 ft | 355 kts | 207° |
| 2026-04-24 02:47 | 38.61237 | -85.11380 | 14914 ft | 354 kts | 207° |
| 2026-04-24 02:47 | 38.58501 | -85.13560 | 14382 ft | 349 kts | 226° |
| 2026-04-24 02:48 | 38.57118 | -85.16047 | 14023 ft | 341 kts | 244° |
| 2026-04-24 02:48 | 38.56545 | -85.17937 | 13764 ft | 336 kts | 255° |
| 2026-04-24 02:48 | 38.56194 | -85.20853 | 13364 ft | 329 kts | 264° |
| 2026-04-24 02:48 | 38.56032 | -85.23743 | 12935 ft | 323 kts | 265° |
| 2026-04-24 02:49 | 38.55883 | -85.26545 | 12536 ft | 318 kts | 265° |
| 2026-04-24 02:49 | 38.55717 | -85.29340 | 12122 ft | 313 kts | 264° |
| 2026-04-24 02:49 | 38.55533 | -85.32090 | 11718 ft | 309 kts | 263° |
| 2026-04-24 02:49 | 38.55340 | -85.34807 | 11322 ft | 304 kts | 263° |
| 2026-04-24 02:50 | 38.55148 | -85.37480 | 10933 ft | 301 kts | 263° |
| 2026-04-24 02:50 | 38.54956 | -85.40129 | 10505 ft | 299 kts | 263° |
| 2026-04-24 02:50 | 38.54764 | -85.42769 | 10052 ft | 298 kts | 263° |
| 2026-04-24 02:50 | 38.54575 | -85.45397 | 9581 ft | 297 kts | 263° |
| 2026-04-24 02:51 | 38.54388 | -85.48009 | 9176 ft | 293 kts | 263° |
| 2026-04-24 02:51 | 38.54204 | -85.50585 | 8787 ft | 289 kts | 262° |
| 2026-04-24 02:51 | 38.54022 | -85.53133 | 8404 ft | 286 kts | 262° |
| 2026-04-24 02:51 | 38.53841 | -85.55642 | 8034 ft | 282 kts | 262° |
| 2026-04-24 02:52 | 38.53662 | -85.58127 | 7636 ft | 280 kts | 262° |
| 2026-04-24 02:52 | 38.53480 | -85.60596 | 7199 ft | 279 kts | 262° |
| 2026-04-24 02:52 | 38.53295 | -85.63066 | 6772 ft | 279 kts | 262° |
| 2026-04-24 02:52 | 38.53114 | -85.65499 | 6350 ft | 279 kts | 262° |
| 2026-04-24 02:53 | 38.52928 | -85.67984 | 6038 ft | 274 kts | 262° |
| 2026-04-24 02:53 | 38.52754 | -85.70317 | 5990 ft | 260 kts | 261° |
| 2026-04-24 02:53 | 38.52586 | -85.72561 | 5803 ft | 252 kts | 261° |
| 2026-04-24 02:53 | 38.52041 | -85.74629 | 5440 ft | 245 kts | 230° |
| 2026-04-24 02:54 | 38.50786 | -85.76045 | 5135 ft | 240 kts | 212° |
| 2026-04-24 02:54 | 38.49314 | -85.77050 | 4793 ft | 239 kts | 205° |
| 2026-04-24 02:54 | 38.47813 | -85.77955 | 4481 ft | 238 kts | 205° |
| 2026-04-24 02:54 | 38.46320 | -85.78843 | 4176 ft | 235 kts | 205° |
| 2026-04-24 02:55 | 38.44822 | -85.79697 | 4037 ft | 235 kts | 200° |
| 2026-04-24 02:55 | 38.43289 | -85.80281 | 3989 ft | 223 kts | 192° |
| 2026-04-24 02:55 | 38.41791 | -85.80467 | 3985 ft | 210 kts | 185° |
| 2026-04-24 02:55 | 38.40329 | -85.80506 | 4002 ft | 210 kts | 174° |
| 2026-04-24 02:56 | 38.38924 | -85.80036 | 3993 ft | 207 kts | 167° |
| 2026-04-24 02:56 | 38.37524 | -85.79562 | 4012 ft | 210 kts | 168° |
| 2026-04-24 02:56 | 38.36093 | -85.79085 | 3999 ft | 215 kts | 168° |
| 2026-04-24 02:56 | 38.34649 | -85.78593 | 3801 ft | 218 kts | 168° |
| 2026-04-24 02:57 | 38.33173 | -85.78086 | 3399 ft | 216 kts | 168° |
| 2026-04-24 02:57 | 38.31744 | -85.77594 | 3107 ft | 209 kts | 168° |
| 2026-04-24 02:57 | 38.30386 | -85.77129 | 2830 ft | 200 kts | 168° |
| 2026-04-24 02:57 | 38.29067 | -85.76677 | 2572 ft | 192 kts | 168° |
| 2026-04-24 02:58 | 38.27791 | -85.76240 | 2332 ft | 188 kts | 168° |
| 2026-04-24 02:58 | 38.26546 | -85.75813 | 2117 ft | 181 kts | 168° |
| 2026-04-24 02:58 | 38.25378 | -85.75414 | 1871 ft | 167 kts | 168° |
| 2026-04-24 02:58 | 38.24310 | -85.75048 | 1655 ft | 151 kts | 168° |
| 2026-04-24 02:59 | 38.23322 | -85.74710 | 1478 ft | 145 kts | 168° |
| 2026-04-24 02:59 | 38.22357 | -85.74378 | 1293 ft | 141 kts | 168° |
| 2026-04-24 02:59 | 38.21403 | -85.74053 | 1099 ft | 138 kts | 168° |
| 2026-04-24 02:59 | 38.20496 | -85.73747 | 914 ft | 136 kts | 166° |
| 2026-04-24 03:00 | 38.19571 | -85.73418 | 720 ft | 141 kts | 165° |
| 2026-04-24 03:00 | 38.18601 | -85.73086 | 509 ft | 139 kts | 167° |
| 2026-04-24 03:00 | 38.17799 | -85.72818 | 488 ft | 75 kts | 165° |
| 2026-04-24 03:00 | 38.17571 | -85.72777 | 489 ft | 13 kts | 234° |
| 2026-04-24 03:01 | 38.17575 | -85.72858 | 485 ft | 5 kts | 287° |
| 2026-04-24 03:01 | 38.17591 | -85.72923 | 485 ft | 14 kts | 287° |
| 2026-04-24 03:01 | 38.17629 | -85.73045 | 483 ft | 21 kts | 293° |
| 2026-04-24 03:01 | 38.17703 | -85.73279 | 484 ft | 29 kts | 291° |
| 2026-04-24 03:02 | 38.17771 | -85.73499 | 485 ft | 19 kts | 291° |
| 2026-04-24 03:02 | 38.17810 | -85.73576 | 484 ft | 13 kts | 347° |
| 2026-04-24 03:02 | 38.17953 | -85.73555 | 483 ft | 26 kts | 9° |
| 2026-04-24 03:02 | 38.18132 | -85.73550 | 483 ft | 25 kts | 352° |
| 2026-04-24 03:03 | 38.18289 | -85.73619 | 485 ft | 22 kts | 334° |
| 2026-04-24 03:03 | 38.18396 | -85.73731 | 481 ft | 19 kts | 293° |
| 2026-04-24 03:03 | 38.18397 | -85.73794 | 488 ft | 5 kts | 259° |
| 2026-04-24 03:03 | 38.18388 | -85.73837 | 481 ft | 0 kts | 252° |